Rienzi, Mississippi
Current Conditions -  °F | °C
As of 7:15 PM on Thursday 27 Nov 2014 (Local Time) from KCRX Reporting Station
Clear Clear  
Wind Chill: 27°   Ceiling: Unl
Heat Index: 32°   Visibility: NA
Dew Point: 27°   Wind: 5mph
Humidity: 80%   Direction: 30°NNE
Pressure: 30.48"   Gusts: NA
Location:  34.77°N, 88.53°W
Report Text: KCRX 280115Z AUTO 03004KT CLR 00/M03 A3048 RMK AO2
Loading
Personal Weather Stations






























Interactive Weather Map New forecast layout! Learn more

10-Day Weather Forecast

Advertisements
Track Severe Weather on mobile